sensor_id;sensor_type;location;lat;lon;timestamp;P1;durP1;ratioP1;P2;durP2;ratioP2
16579;SDS011;8402;51.466;6.806;2023-04-10T00:00:40;10.60;;;6.23;;
16579;SDS011;8402;51.466;6.806;2023-04-10T00:03:11;11.67;;;6.60;;
16579;SDS011;8402;51.466;6.806;2023-04-10T00:05:43;13.30;;;6.67;;
16579;SDS011;8402;51.466;6.806;2023-04-10T00:08:13;11.30;;;6.23;;
16579;SDS011;8402;51.466;6.806;2023-04-10T00:10:46;10.47;;;6.00;;
16579;SDS011;8402;51.466;6.806;2023-04-10T00:13:16;14.20;;;6.40;;
16579;SDS011;8402;51.466;6.806;2023-04-10T00:15:46;11.43;;;6.23;;
16579;SDS011;8402;51.466;6.806;2023-04-10T00:18:16;11.97;;;6.33;;
16579;SDS011;8402;51.466;6.806;2023-04-10T00:20:46;11.33;;;5.90;;
16579;SDS011;8402;51.466;6.806;2023-04-10T00:23:16;13.10;;;6.40;;
16579;SDS011;8402;51.466;6.806;2023-04-10T00:25:49;10.77;;;6.50;;
16579;SDS011;8402;51.466;6.806;2023-04-10T00:28:19;10.73;;;6.37;;
16579;SDS011;8402;51.466;6.806;2023-04-10T00:30:48;12.30;;;6.23;;
16579;SDS011;8402;51.466;6.806;2023-04-10T00:33:18;9.17;;;5.53;;
16579;SDS011;8402;51.466;6.806;2023-04-10T00:35:48;13.00;;;5.93;;
16579;SDS011;8402;51.466;6.806;2023-04-10T00:38:18;11.23;;;5.97;;
16579;SDS011;8402;51.466;6.806;2023-04-10T00:40:50;10.40;;;5.60;;
16579;SDS011;8402;51.466;6.806;2023-04-10T00:43:20;13.37;;;6.27;;
16579;SDS011;8402;51.466;6.806;2023-04-10T00:45:50;9.30;;;5.47;;
16579;SDS011;8402;51.466;6.806;2023-04-10T00:48:22;11.13;;;6.03;;
16579;SDS011;8402;51.466;6.806;2023-04-10T00:50:52;14.27;;;6.40;;
16579;SDS011;8402;51.466;6.806;2023-04-10T00:53:22;10.97;;;6.10;;
16579;SDS011;8402;51.466;6.806;2023-04-10T00:55:55;11.77;;;6.07;;
16579;SDS011;8402;51.466;6.806;2023-04-10T00:58:26;12.10;;;6.37;;
16579;SDS011;8402;51.466;6.806;2023-04-10T01:00:56;10.53;;;5.80;;
16579;SDS011;8402;51.466;6.806;2023-04-10T01:03:27;9.30;;;6.03;;
16579;SDS011;8402;51.466;6.806;2023-04-10T01:06:00;12.17;;;6.17;;
16579;SDS011;8402;51.466;6.806;2023-04-10T01:08:35;12.57;;;6.40;;
16579;SDS011;8402;51.466;6.806;2023-04-10T01:11:16;11.10;;;6.37;;
16579;SDS011;8402;51.466;6.806;2023-04-10T01:13:52;9.77;;;5.50;;
16579;SDS011;8402;51.466;6.806;2023-04-10T01:16:33;9.70;;;5.37;;
16579;SDS011;8402;51.466;6.806;2023-04-10T01:19:14;11.33;;;5.70;;
16579;SDS011;8402;51.466;6.806;2023-04-10T01:21:54;15.57;;;5.77;;
16579;SDS011;8402;51.466;6.806;2023-04-10T01:24:29;13.13;;;5.83;;
16579;SDS011;8402;51.466;6.806;2023-04-10T01:27:11;15.50;;;5.80;;
16579;SDS011;8402;51.466;6.806;2023-04-10T01:30:06;8.93;;;5.37;;
16579;SDS011;8402;51.466;6.806;2023-04-10T01:32:42;12.97;;;6.00;;
16579;SDS011;8402;51.466;6.806;2023-04-10T01:35:13;11.43;;;6.00;;
16579;SDS011;8402;51.466;6.806;2023-04-10T01:37:44;14.03;;;6.27;;
16579;SDS011;8402;51.466;6.806;2023-04-10T01:40:16;9.93;;;5.73;;
16579;SDS011;8402;51.466;6.806;2023-04-10T01:42:50;10.13;;;5.87;;
16579;SDS011;8402;51.466;6.806;2023-04-10T01:45:26;12.57;;;5.60;;
16579;SDS011;8402;51.466;6.806;2023-04-10T01:47:57;9.13;;;5.60;;
16579;SDS011;8402;51.466;6.806;2023-04-10T01:50:27;11.23;;;5.70;;
16579;SDS011;8402;51.466;6.806;2023-04-10T01:52:58;8.87;;;4.90;;
16579;SDS011;8402;51.466;6.806;2023-04-10T01:55:30;8.53;;;5.70;;
16579;SDS011;8402;51.466;6.806;2023-04-10T01:58:02;9.67;;;5.53;;
16579;SDS011;8402;51.466;6.806;2023-04-10T02:00:38;8.77;;;5.43;;
16579;SDS011;8402;51.466;6.806;2023-04-10T02:03:09;10.80;;;5.50;;
16579;SDS011;8402;51.466;6.806;2023-04-10T02:05:45;10.27;;;5.67;;
16579;SDS011;8402;51.466;6.806;2023-04-10T02:08:24;13.00;;;5.43;;
16579;SDS011;8402;51.466;6.806;2023-04-10T02:11:01;10.50;;;5.03;;
16579;SDS011;8402;51.466;6.806;2023-04-10T02:13:38;10.37;;;5.60;;
16579;SDS011;8402;51.466;6.806;2023-04-10T02:16:13;10.00;;;5.17;;
16579;SDS011;8402;51.466;6.806;2023-04-10T02:18:46;8.40;;;4.73;;
16579;SDS011;8402;51.466;6.806;2023-04-10T02:21:17;8.53;;;4.90;;
16579;SDS011;8402;51.466;6.806;2023-04-10T02:23:47;8.80;;;5.33;;
16579;SDS011;8402;51.466;6.806;2023-04-10T02:26:17;8.97;;;5.13;;
16579;SDS011;8402;51.466;6.806;2023-04-10T02:28:47;11.03;;;5.77;;
16579;SDS011;8402;51.466;6.806;2023-04-10T02:31:19;9.20;;;5.33;;
16579;SDS011;8402;51.466;6.806;2023-04-10T02:33:50;10.77;;;5.50;;
16579;SDS011;8402;51.466;6.806;2023-04-10T02:36:20;11.77;;;5.53;;
16579;SDS011;8402;51.466;6.806;2023-04-10T02:38:50;10.60;;;5.40;;
16579;SDS011;8402;51.466;6.806;2023-04-10T02:41:20;8.80;;;5.23;;
16579;SDS011;8402;51.466;6.806;2023-04-10T02:43:50;8.43;;;5.10;;
16579;SDS011;8402;51.466;6.806;2023-04-10T02:46:22;10.40;;;5.50;;
16579;SDS011;8402;51.466;6.806;2023-04-10T02:48:53;9.33;;;5.00;;
16579;SDS011;8402;51.466;6.806;2023-04-10T02:51:24;10.47;;;5.37;;
16579;SDS011;8402;51.466;6.806;2023-04-10T02:53:54;9.93;;;5.43;;
16579;SDS011;8402;51.466;6.806;2023-04-10T02:56:24;10.77;;;5.30;;
16579;SDS011;8402;51.466;6.806;2023-04-10T02:58:54;10.50;;;5.60;;
16579;SDS011;8402;51.466;6.806;2023-04-10T03:01:26;9.13;;;4.80;;
16579;SDS011;8402;51.466;6.806;2023-04-10T03:03:57;10.50;;;5.03;;
16579;SDS011;8402;51.466;6.806;2023-04-10T03:06:29;9.40;;;5.37;;
16579;SDS011;8402;51.466;6.806;2023-04-10T03:08:59;10.23;;;5.33;;
16579;SDS011;8402;51.466;6.806;2023-04-10T03:11:29;11.37;;;4.77;;
16579;SDS011;8402;51.466;6.806;2023-04-10T03:13:59;8.77;;;4.57;;
16579;SDS011;8402;51.466;6.806;2023-04-10T03:16:32;9.43;;;5.03;;
16579;SDS011;8402;51.466;6.806;2023-04-10T03:19:02;11.33;;;5.90;;
16579;SDS011;8402;51.466;6.806;2023-04-10T03:21:32;13.50;;;5.47;;
16579;SDS011;8402;51.466;6.806;2023-04-10T03:24:02;10.17;;;5.10;;
16579;SDS011;8402;51.466;6.806;2023-04-10T03:26:32;13.43;;;5.00;;
16579;SDS011;8402;51.466;6.806;2023-04-10T03:29:02;15.77;;;5.20;;
16579;SDS011;8402;51.466;6.806;2023-04-10T03:31:35;10.80;;;5.30;;
16579;SDS011;8402;51.466;6.806;2023-04-10T03:34:05;10.93;;;6.03;;
16579;SDS011;8402;51.466;6.806;2023-04-10T03:36:35;10.13;;;5.00;;
16579;SDS011;8402;51.466;6.806;2023-04-10T03:39:05;8.17;;;5.07;;
16579;SDS011;8402;51.466;6.806;2023-04-10T03:41:34;9.97;;;5.90;;
16579;SDS011;8402;51.466;6.806;2023-04-10T03:44:04;9.00;;;5.50;;
16579;SDS011;8402;51.466;6.806;2023-04-10T03:46:37;9.23;;;4.93;;
16579;SDS011;8402;51.466;6.806;2023-04-10T03:49:07;9.17;;;5.20;;
16579;SDS011;8402;51.466;6.806;2023-04-10T03:51:37;9.67;;;5.60;;
16579;SDS011;8402;51.466;6.806;2023-04-10T03:54:06;9.67;;;5.37;;
16579;SDS011;8402;51.466;6.806;2023-04-10T03:56:36;11.33;;;5.70;;
16579;SDS011;8402;51.466;6.806;2023-04-10T03:59:06;12.57;;;5.13;;
16579;SDS011;8402;51.466;6.806;2023-04-10T04:01:39;7.90;;;5.00;;
16579;SDS011;8402;51.466;6.806;2023-04-10T04:04:09;8.00;;;4.83;;
16579;SDS011;8402;51.466;6.806;2023-04-10T04:06:39;11.60;;;5.43;;
16579;SDS011;8402;51.466;6.806;2023-04-10T04:09:09;9.93;;;5.40;;
16579;SDS011;8402;51.466;6.806;2023-04-10T04:11:39;9.40;;;5.17;;
16579;SDS011;8402;51.466;6.806;2023-04-10T04:14:09;11.23;;;5.77;;
16579;SDS011;8402;51.466;6.806;2023-04-10T04:16:41;9.67;;;5.37;;
16579;SDS011;8402;51.466;6.806;2023-04-10T04:19:12;11.27;;;5.63;;
16579;SDS011;8402;51.466;6.806;2023-04-10T04:21:42;10.03;;;5.43;;
16579;SDS011;8402;51.466;6.806;2023-04-10T04:24:12;11.00;;;5.67;;
16579;SDS011;8402;51.466;6.806;2023-04-10T04:26:42;10.77;;;6.00;;
16579;SDS011;8402;51.466;6.806;2023-04-10T04:29:12;10.37;;;5.43;;
16579;SDS011;8402;51.466;6.806;2023-04-10T04:31:45;9.40;;;5.50;;
16579;SDS011;8402;51.466;6.806;2023-04-10T04:34:15;9.50;;;5.07;;
16579;SDS011;8402;51.466;6.806;2023-04-10T04:36:45;10.97;;;5.20;;
16579;SDS011;8402;51.466;6.806;2023-04-10T04:39:17;11.57;;;5.87;;
16579;SDS011;8402;51.466;6.806;2023-04-10T04:41:48;11.87;;;5.90;;
16579;SDS011;8402;51.466;6.806;2023-04-10T04:44:18;11.87;;;5.37;;
16579;SDS011;8402;51.466;6.806;2023-04-10T04:46:51;9.17;;;5.47;;
16579;SDS011;8402;51.466;6.806;2023-04-10T04:49:21;11.13;;;6.10;;
16579;SDS011;8402;51.466;6.806;2023-04-10T04:51:51;9.40;;;5.07;;
16579;SDS011;8402;51.466;6.806;2023-04-10T04:54:20;10.77;;;5.77;;
16579;SDS011;8402;51.466;6.806;2023-04-10T04:56:51;8.67;;;4.83;;
16579;SDS011;8402;51.466;6.806;2023-04-10T04:59:22;13.63;;;5.60;;
16579;SDS011;8402;51.466;6.806;2023-04-10T05:01:54;12.80;;;5.40;;
16579;SDS011;8402;51.466;6.806;2023-04-10T05:04:24;10.03;;;5.33;;
16579;SDS011;8402;51.466;6.806;2023-04-10T05:06:54;11.40;;;5.53;;
16579;SDS011;8402;51.466;6.806;2023-04-10T05:09:24;10.37;;;5.50;;
16579;SDS011;8402;51.466;6.806;2023-04-10T05:11:54;9.50;;;5.20;;
16579;SDS011;8402;51.466;6.806;2023-04-10T05:14:24;10.93;;;5.80;;
16579;SDS011;8402;51.466;6.806;2023-04-10T05:16:58;12.53;;;5.40;;
16579;SDS011;8402;51.466;6.806;2023-04-10T05:19:29;12.60;;;5.03;;
16579;SDS011;8402;51.466;6.806;2023-04-10T05:22:01;9.23;;;5.57;;
16579;SDS011;8402;51.466;6.806;2023-04-10T05:24:31;10.63;;;5.17;;
16579;SDS011;8402;51.466;6.806;2023-04-10T05:27:04;10.70;;;5.20;;
16579;SDS011;8402;51.466;6.806;2023-04-10T05:29:34;8.73;;;5.13;;
16579;SDS011;8402;51.466;6.806;2023-04-10T05:32:06;11.03;;;5.67;;
16579;SDS011;8402;51.466;6.806;2023-04-10T05:34:37;12.43;;;5.37;;
16579;SDS011;8402;51.466;6.806;2023-04-10T05:37:07;9.17;;;5.07;;
16579;SDS011;8402;51.466;6.806;2023-04-10T05:39:38;10.20;;;5.37;;
16579;SDS011;8402;51.466;6.806;2023-04-10T05:42:08;9.67;;;5.30;;
16579;SDS011;8402;51.466;6.806;2023-04-10T05:44:38;14.27;;;6.57;;
16579;SDS011;8402;51.466;6.806;2023-04-10T05:47:11;13.60;;;6.77;;
16579;SDS011;8402;51.466;6.806;2023-04-10T05:49:41;11.07;;;5.83;;
16579;SDS011;8402;51.466;6.806;2023-04-10T05:52:11;12.07;;;5.97;;
16579;SDS011;8402;51.466;6.806;2023-04-10T05:54:41;10.97;;;5.97;;
16579;SDS011;8402;51.466;6.806;2023-04-10T05:57:11;10.30;;;5.87;;
16579;SDS011;8402;51.466;6.806;2023-04-10T05:59:40;11.40;;;6.03;;
16579;SDS011;8402;51.466;6.806;2023-04-10T06:02:13;11.47;;;5.90;;
16579;SDS011;8402;51.466;6.806;2023-04-10T06:04:44;9.00;;;4.97;;
16579;SDS011;8402;51.466;6.806;2023-04-10T06:07:14;10.03;;;5.60;;
16579;SDS011;8402;51.466;6.806;2023-04-10T06:09:45;10.00;;;5.57;;
16579;SDS011;8402;51.466;6.806;2023-04-10T06:12:15;12.17;;;6.10;;
16579;SDS011;8402;51.466;6.806;2023-04-10T06:14:46;9.17;;;5.33;;
16579;SDS011;8402;51.466;6.806;2023-04-10T06:17:20;9.57;;;5.50;;
16579;SDS011;8402;51.466;6.806;2023-04-10T06:19:51;8.90;;;4.43;;
16579;SDS011;8402;51.466;6.806;2023-04-10T06:22:22;9.60;;;5.00;;
16579;SDS011;8402;51.466;6.806;2023-04-10T06:24:52;10.87;;;5.70;;
16579;SDS011;8402;51.466;6.806;2023-04-10T06:27:22;11.20;;;5.80;;
16579;SDS011;8402;51.466;6.806;2023-04-10T06:29:52;9.23;;;5.10;;
16579;SDS011;8402;51.466;6.806;2023-04-10T06:32:24;10.30;;;5.67;;
16579;SDS011;8402;51.466;6.806;2023-04-10T06:34:54;11.13;;;4.70;;
16579;SDS011;8402;51.466;6.806;2023-04-10T06:37:27;8.87;;;4.83;;
16579;SDS011;8402;51.466;6.806;2023-04-10T06:40:05;7.53;;;4.23;;
16579;SDS011;8402;51.466;6.806;2023-04-10T06:42:37;9.13;;;5.17;;
16579;SDS011;8402;51.466;6.806;2023-04-10T06:45:07;8.70;;;5.30;;
16579;SDS011;8402;51.466;6.806;2023-04-10T06:47:40;9.37;;;5.17;;
16579;SDS011;8402;51.466;6.806;2023-04-10T06:50:10;8.53;;;5.00;;
16579;SDS011;8402;51.466;6.806;2023-04-10T06:52:40;8.27;;;4.83;;
16579;SDS011;8402;51.466;6.806;2023-04-10T06:55:10;7.37;;;4.53;;
16579;SDS011;8402;51.466;6.806;2023-04-10T06:57:40;8.07;;;4.70;;
16579;SDS011;8402;51.466;6.806;2023-04-10T07:00:11;8.77;;;4.80;;
16579;SDS011;8402;51.466;6.806;2023-04-10T07:02:44;15.03;;;4.43;;
16579;SDS011;8402;51.466;6.806;2023-04-10T07:05:14;9.23;;;4.73;;
16579;SDS011;8402;51.466;6.806;2023-04-10T07:07:45;7.60;;;4.50;;
16579;SDS011;8402;51.466;6.806;2023-04-10T07:10:16;6.73;;;4.27;;
16579;SDS011;8402;51.466;6.806;2023-04-10T07:12:46;10.83;;;4.13;;
16579;SDS011;8402;51.466;6.806;2023-04-10T07:15:16;6.80;;;4.30;;
16579;SDS011;8402;51.466;6.806;2023-04-10T07:17:49;8.17;;;5.07;;
16579;SDS011;8402;51.466;6.806;2023-04-10T07:20:22;5.77;;;3.57;;
16579;SDS011;8402;51.466;6.806;2023-04-10T07:22:52;9.47;;;4.97;;
16579;SDS011;8402;51.466;6.806;2023-04-10T07:25:22;8.80;;;4.47;;
16579;SDS011;8402;51.466;6.806;2023-04-10T07:27:51;6.93;;;4.43;;
16579;SDS011;8402;51.466;6.806;2023-04-10T07:30:21;7.83;;;5.03;;
16579;SDS011;8402;51.466;6.806;2023-04-10T07:32:54;7.67;;;4.60;;
16579;SDS011;8402;51.466;6.806;2023-04-10T07:35:24;11.03;;;4.70;;
16579;SDS011;8402;51.466;6.806;2023-04-10T07:37:55;7.27;;;4.43;;
16579;SDS011;8402;51.466;6.806;2023-04-10T07:40:28;11.37;;;4.97;;
16579;SDS011;8402;51.466;6.806;2023-04-10T07:42:57;6.70;;;4.40;;
16579;SDS011;8402;51.466;6.806;2023-04-10T07:45:27;8.57;;;4.30;;
16579;SDS011;8402;51.466;6.806;2023-04-10T07:48:00;7.87;;;4.23;;
16579;SDS011;8402;51.466;6.806;2023-04-10T07:50:31;7.13;;;4.43;;
16579;SDS011;8402;51.466;6.806;2023-04-10T07:53:01;6.90;;;4.33;;
16579;SDS011;8402;51.466;6.806;2023-04-10T07:55:36;7.17;;;4.30;;
16579;SDS011;8402;51.466;6.806;2023-04-10T07:58:06;6.53;;;4.03;;
16579;SDS011;8402;51.466;6.806;2023-04-10T08:00:36;6.83;;;4.30;;
16579;SDS011;8402;51.466;6.806;2023-04-10T08:03:09;6.57;;;4.27;;
16579;SDS011;8402;51.466;6.806;2023-04-10T08:05:40;6.13;;;3.73;;
16579;SDS011;8402;51.466;6.806;2023-04-10T08:08:10;9.97;;;4.67;;
16579;SDS011;8402;51.466;6.806;2023-04-10T08:10:40;5.50;;;4.20;;
16579;SDS011;8402;51.466;6.806;2023-04-10T08:13:10;6.50;;;4.50;;
16579;SDS011;8402;51.466;6.806;2023-04-10T08:15:39;7.83;;;4.07;;
16579;SDS011;8402;51.466;6.806;2023-04-10T08:18:12;7.80;;;4.57;;
16579;SDS011;8402;51.466;6.806;2023-04-10T08:20:42;6.50;;;3.90;;
16579;SDS011;8402;51.466;6.806;2023-04-10T08:23:12;6.70;;;3.87;;
16579;SDS011;8402;51.466;6.806;2023-04-10T08:25:46;7.33;;;3.97;;
16579;SDS011;8402;51.466;6.806;2023-04-10T08:28:18;5.20;;;3.37;;
16579;SDS011;8402;51.466;6.806;2023-04-10T08:30:48;5.90;;;3.80;;
16579;SDS011;8402;51.466;6.806;2023-04-10T08:33:20;5.30;;;3.50;;
16579;SDS011;8402;51.466;6.806;2023-04-10T08:35:50;6.63;;;4.10;;
16579;SDS011;8402;51.466;6.806;2023-04-10T08:38:21;7.00;;;4.60;;
16579;SDS011;8402;51.466;6.806;2023-04-10T08:40:53;6.03;;;4.13;;
16579;SDS011;8402;51.466;6.806;2023-04-10T08:43:23;5.73;;;4.00;;
16579;SDS011;8402;51.466;6.806;2023-04-10T08:45:54;6.83;;;4.17;;
16579;SDS011;8402;51.466;6.806;2023-04-10T08:48:33;6.43;;;4.03;;
16579;SDS011;8402;51.466;6.806;2023-04-10T08:51:08;5.90;;;4.07;;
16579;SDS011;8402;51.466;6.806;2023-04-10T08:53:46;5.33;;;2.47;;
16579;SDS011;8402;51.466;6.806;2023-04-10T08:56:20;9.03;;;4.77;;
16579;SDS011;8402;51.466;6.806;2023-04-10T08:58:51;5.93;;;3.87;;
16579;SDS011;8402;51.466;6.806;2023-04-10T09:01:21;6.40;;;3.83;;
16579;SDS011;8402;51.466;6.806;2023-04-10T09:03:56;6.13;;;3.90;;
16579;SDS011;8402;51.466;6.806;2023-04-10T09:06:27;5.63;;;3.90;;
16579;SDS011;8402;51.466;6.806;2023-04-10T09:08:57;4.70;;;3.30;;
16579;SDS011;8402;51.466;6.806;2023-04-10T09:14:27;5.30;;;3.30;;
16579;SDS011;8402;51.466;6.806;2023-04-10T09:19:53;5.07;;;3.83;;
16579;SDS011;8402;51.466;6.806;2023-04-10T09:22:28;5.80;;;4.00;;
16579;SDS011;8402;51.466;6.806;2023-04-10T09:25:00;6.43;;;3.70;;
16579;SDS011;8402;51.466;6.806;2023-04-10T09:27:32;5.63;;;3.47;;
16579;SDS011;8402;51.466;6.806;2023-04-10T09:30:05;5.80;;;3.70;;
16579;SDS011;8402;51.466;6.806;2023-04-10T09:32:38;5.30;;;3.43;;
16579;SDS011;8402;51.466;6.806;2023-04-10T09:35:12;5.83;;;3.43;;
16579;SDS011;8402;51.466;6.806;2023-04-10T09:37:44;6.13;;;3.57;;
16579;SDS011;8402;51.466;6.806;2023-04-10T09:40:21;4.70;;;3.40;;
16579;SDS011;8402;51.466;6.806;2023-04-10T09:42:52;4.77;;;3.27;;
16579;SDS011;8402;51.466;6.806;2023-04-10T09:45:24;4.73;;;3.10;;
16579;SDS011;8402;51.466;6.806;2023-04-10T09:48:01;6.00;;;3.23;;
16579;SDS011;8402;51.466;6.806;2023-04-10T09:50:38;5.77;;;3.77;;
16579;SDS011;8402;51.466;6.806;2023-04-10T09:53:09;4.93;;;3.30;;
16579;SDS011;8402;51.466;6.806;2023-04-10T09:55:42;4.43;;;3.03;;
16579;SDS011;8402;51.466;6.806;2023-04-10T09:58:12;4.60;;;2.90;;
16579;SDS011;8402;51.466;6.806;2023-04-10T10:00:45;4.63;;;3.40;;
16579;SDS011;8402;51.466;6.806;2023-04-10T10:03:17;10.77;;;3.40;;
16579;SDS011;8402;51.466;6.806;2023-04-10T10:05:51;5.47;;;3.10;;
16579;SDS011;8402;51.466;6.806;2023-04-10T10:08:21;3.92;;;3.13;;
16579;SDS011;8402;51.466;6.806;2023-04-10T10:10:52;4.17;;;3.40;;
16579;SDS011;8402;51.466;6.806;2023-04-10T10:13:23;5.53;;;3.57;;
16579;SDS011;8402;51.466;6.806;2023-04-10T10:15:58;7.27;;;3.47;;
16579;SDS011;8402;51.466;6.806;2023-04-10T10:18:34;5.27;;;3.40;;
16579;SDS011;8402;51.466;6.806;2023-04-10T10:21:14;6.10;;;3.40;;
16579;SDS011;8402;51.466;6.806;2023-04-10T10:23:47;5.33;;;3.10;;
16579;SDS011;8402;51.466;6.806;2023-04-10T10:26:20;3.83;;;3.00;;
16579;SDS011;8402;51.466;6.806;2023-04-10T10:28:50;4.78;;;3.08;;
16579;SDS011;8402;51.466;6.806;2023-04-10T10:31:21;5.00;;;3.17;;
16579;SDS011;8402;51.466;6.806;2023-04-10T10:33:56;4.83;;;3.17;;
16579;SDS011;8402;51.466;6.806;2023-04-10T10:36:33;4.25;;;2.90;;
16579;SDS011;8402;51.466;6.806;2023-04-10T10:39:16;4.97;;;3.20;;
16579;SDS011;8402;51.466;6.806;2023-04-10T10:41:55;4.27;;;3.50;;
16579;SDS011;8402;51.466;6.806;2023-04-10T10:44:34;4.50;;;2.90;;
16579;SDS011;8402;51.466;6.806;2023-04-10T10:47:13;5.72;;;3.55;;
16579;SDS011;8402;51.466;6.806;2023-04-10T10:49:52;5.30;;;3.08;;
16579;SDS011;8402;51.466;6.806;2023-04-10T10:52:39;3.40;;;2.78;;
16579;SDS011;8402;51.466;6.806;2023-04-10T10:58:03;4.82;;;2.85;;
16579;SDS011;8402;51.466;6.806;2023-04-10T11:03:36;4.72;;;3.15;;
16579;SDS011;8402;51.466;6.806;2023-04-10T11:06:09;3.95;;;2.90;;
16579;SDS011;8402;51.466;6.806;2023-04-10T11:08:45;5.85;;;3.28;;
16579;SDS011;8402;51.466;6.806;2023-04-10T11:11:19;3.92;;;3.10;;
16579;SDS011;8402;51.466;6.806;2023-04-10T11:16:46;6.25;;;3.17;;
16579;SDS011;8402;51.466;6.806;2023-04-10T11:19:17;3.15;;;1.88;;
16579;SDS011;8402;51.466;6.806;2023-04-10T11:22:00;4.30;;;2.63;;
16579;SDS011;8402;51.466;6.806;2023-04-10T11:30:24;3.72;;;2.00;;
16579;SDS011;8402;51.466;6.806;2023-04-10T11:32:55;4.30;;;3.13;;
16579;SDS011;8402;51.466;6.806;2023-04-10T11:35:26;2.85;;;1.75;;
16579;SDS011;8402;51.466;6.806;2023-04-10T11:38:10;3.65;;;2.70;;
16579;SDS011;8402;51.466;6.806;2023-04-10T11:43:41;4.18;;;2.95;;
16579;SDS011;8402;51.466;6.806;2023-04-10T11:46:10;6.18;;;2.90;;
16579;SDS011;8402;51.466;6.806;2023-04-10T11:48:40;4.45;;;2.78;;
16579;SDS011;8402;51.466;6.806;2023-04-10T11:51:11;5.32;;;3.00;;
16579;SDS011;8402;51.466;6.806;2023-04-10T11:53:42;3.78;;;2.55;;
16579;SDS011;8402;51.466;6.806;2023-04-10T11:56:28;4.25;;;2.75;;
16579;SDS011;8402;51.466;6.806;2023-04-10T11:58:58;4.63;;;2.83;;
16579;SDS011;8402;51.466;6.806;2023-04-10T12:01:33;4.75;;;3.45;;
16579;SDS011;8402;51.466;6.806;2023-04-10T12:04:09;4.07;;;2.75;;
16579;SDS011;8402;51.466;6.806;2023-04-10T12:06:43;4.13;;;2.95;;
16579;SDS011;8402;51.466;6.806;2023-04-10T12:09:14;3.17;;;2.47;;
16579;SDS011;8402;51.466;6.806;2023-04-10T12:11:51;4.40;;;2.90;;
16579;SDS011;8402;51.466;6.806;2023-04-10T12:14:28;3.53;;;2.45;;
16579;SDS011;8402;51.466;6.806;2023-04-10T12:17:01;6.20;;;2.50;;
16579;SDS011;8402;51.466;6.806;2023-04-10T12:19:32;3.83;;;2.88;;
16579;SDS011;8402;51.466;6.806;2023-04-10T12:22:02;3.83;;;2.60;;
16579;SDS011;8402;51.466;6.806;2023-04-10T12:24:39;4.53;;;2.83;;
16579;SDS011;8402;51.466;6.806;2023-04-10T12:27:20;4.20;;;2.85;;
16579;SDS011;8402;51.466;6.806;2023-04-10T12:29:52;3.65;;;2.80;;
16579;SDS011;8402;51.466;6.806;2023-04-10T12:32:23;3.97;;;2.90;;
16579;SDS011;8402;51.466;6.806;2023-04-10T12:34:55;5.07;;;2.85;;
16579;SDS011;8402;51.466;6.806;2023-04-10T12:40:17;3.50;;;2.40;;
16579;SDS011;8402;51.466;6.806;2023-04-10T12:42:51;5.20;;;2.78;;
16579;SDS011;8402;51.466;6.806;2023-04-10T12:45:21;3.90;;;2.72;;
16579;SDS011;8402;51.466;6.806;2023-04-10T12:48:09;3.30;;;2.72;;
16579;SDS011;8402;51.466;6.806;2023-04-10T12:50:45;4.40;;;2.60;;
16579;SDS011;8402;51.466;6.806;2023-04-10T12:53:16;3.15;;;2.33;;
16579;SDS011;8402;51.466;6.806;2023-04-10T12:55:55;3.40;;;2.45;;
16579;SDS011;8402;51.466;6.806;2023-04-10T12:58:29;5.40;;;2.63;;
16579;SDS011;8402;51.466;6.806;2023-04-10T13:01:01;4.13;;;2.60;;
16579;SDS011;8402;51.466;6.806;2023-04-10T13:03:32;4.10;;;2.60;;
16579;SDS011;8402;51.466;6.806;2023-04-10T13:06:04;4.18;;;2.63;;
16579;SDS011;8402;51.466;6.806;2023-04-10T13:08:35;3.60;;;2.17;;
16579;SDS011;8402;51.466;6.806;2023-04-10T13:11:05;3.45;;;2.03;;
16579;SDS011;8402;51.466;6.806;2023-04-10T13:13:38;3.28;;;2.50;;
16579;SDS011;8402;51.466;6.806;2023-04-10T13:16:08;4.40;;;2.30;;
16579;SDS011;8402;51.466;6.806;2023-04-10T13:18:39;16.25;;;8.93;;
16579;SDS011;8402;51.466;6.806;2023-04-10T13:21:09;7.38;;;3.42;;
16579;SDS011;8402;51.466;6.806;2023-04-10T13:23:43;3.95;;;2.67;;
16579;SDS011;8402;51.466;6.806;2023-04-10T13:26:13;4.65;;;2.30;;
16579;SDS011;8402;51.466;6.806;2023-04-10T13:28:46;3.45;;;2.45;;
16579;SDS011;8402;51.466;6.806;2023-04-10T13:31:16;4.03;;;2.40;;
16579;SDS011;8402;51.466;6.806;2023-04-10T13:33:46;3.38;;;2.28;;
16579;SDS011;8402;51.466;6.806;2023-04-10T13:36:16;3.45;;;2.38;;
16579;SDS011;8402;51.466;6.806;2023-04-10T13:38:46;2.97;;;2.20;;
16579;SDS011;8402;51.466;6.806;2023-04-10T13:41:16;3.83;;;2.42;;
16579;SDS011;8402;51.466;6.806;2023-04-10T13:43:49;3.75;;;2.50;;
16579;SDS011;8402;51.466;6.806;2023-04-10T13:46:19;6.78;;;2.50;;
16579;SDS011;8402;51.466;6.806;2023-04-10T13:48:49;3.30;;;2.50;;
16579;SDS011;8402;51.466;6.806;2023-04-10T13:51:19;5.65;;;2.30;;
16579;SDS011;8402;51.466;6.806;2023-04-10T13:53:49;4.88;;;2.30;;
16579;SDS011;8402;51.466;6.806;2023-04-10T13:56:19;3.20;;;2.10;;
16579;SDS011;8402;51.466;6.806;2023-04-10T13:58:52;3.22;;;2.53;;
16579;SDS011;8402;51.466;6.806;2023-04-10T14:01:22;3.83;;;2.20;;
16579;SDS011;8402;51.466;6.806;2023-04-10T14:03:52;3.13;;;2.30;;
16579;SDS011;8402;51.466;6.806;2023-04-10T14:06:22;3.35;;;2.08;;
16579;SDS011;8402;51.466;6.806;2023-04-10T14:08:52;3.35;;;2.15;;
16579;SDS011;8402;51.466;6.806;2023-04-10T14:11:24;2.78;;;2.15;;
16579;SDS011;8402;51.466;6.806;2023-04-10T14:13:56;2.50;;;2.00;;
16579;SDS011;8402;51.466;6.806;2023-04-10T14:16:26;3.55;;;2.28;;
16579;SDS011;8402;51.466;6.806;2023-04-10T14:18:56;3.88;;;2.30;;
16579;SDS011;8402;51.466;6.806;2023-04-10T14:21:26;2.60;;;2.17;;
16579;SDS011;8402;51.466;6.806;2023-04-10T14:23:57;3.28;;;2.20;;
16579;SDS011;8402;51.466;6.806;2023-04-10T14:26:27;2.70;;;1.90;;
16579;SDS011;8402;51.466;6.806;2023-04-10T14:29:01;4.32;;;1.77;;
16579;SDS011;8402;51.466;6.806;2023-04-10T14:31:33;3.75;;;1.48;;
16579;SDS011;8402;51.466;6.806;2023-04-10T14:34:22;2.67;;;1.83;;
16579;SDS011;8402;51.466;6.806;2023-04-10T14:36:52;2.30;;;1.90;;
16579;SDS011;8402;51.466;6.806;2023-04-10T14:39:24;4.13;;;1.98;;
16579;SDS011;8402;51.466;6.806;2023-04-10T14:41:56;2.75;;;2.08;;
16579;SDS011;8402;51.466;6.806;2023-04-10T14:44:30;3.33;;;1.95;;
16579;SDS011;8402;51.466;6.806;2023-04-10T14:47:00;3.15;;;2.05;;
16579;SDS011;8402;51.466;6.806;2023-04-10T14:49:32;2.30;;;1.88;;
16579;SDS011;8402;51.466;6.806;2023-04-10T14:52:02;3.72;;;1.85;;
16579;SDS011;8402;51.466;6.806;2023-04-10T14:54:32;2.60;;;1.90;;
16579;SDS011;8402;51.466;6.806;2023-04-10T14:57:02;2.20;;;1.70;;
16579;SDS011;8402;51.466;6.806;2023-04-10T14:59:34;2.15;;;1.90;;
16579;SDS011;8402;51.466;6.806;2023-04-10T15:02:04;4.40;;;2.10;;
16579;SDS011;8402;51.466;6.806;2023-04-10T15:04:34;3.63;;;2.17;;
16579;SDS011;8402;51.466;6.806;2023-04-10T15:07:04;2.33;;;1.92;;
16579;SDS011;8402;51.466;6.806;2023-04-10T15:09:35;2.55;;;1.90;;
16579;SDS011;8402;51.466;6.806;2023-04-10T15:12:06;1.92;;;1.70;;
16579;SDS011;8402;51.466;6.806;2023-04-10T15:14:38;3.28;;;2.35;;
16579;SDS011;8402;51.466;6.806;2023-04-10T15:17:08;3.42;;;2.17;;
16579;SDS011;8402;51.466;6.806;2023-04-10T15:19:38;2.60;;;2.00;;
16579;SDS011;8402;51.466;6.806;2023-04-10T15:22:08;2.20;;;1.83;;
16579;SDS011;8402;51.466;6.806;2023-04-10T15:24:38;2.83;;;2.08;;
16579;SDS011;8402;51.466;6.806;2023-04-10T15:27:17;2.92;;;1.95;;
16579;SDS011;8402;51.466;6.806;2023-04-10T15:29:50;3.00;;;1.88;;
16579;SDS011;8402;51.466;6.806;2023-04-10T15:32:21;2.40;;;1.80;;
16579;SDS011;8402;51.466;6.806;2023-04-10T15:34:53;4.03;;;1.83;;
16579;SDS011;8402;51.466;6.806;2023-04-10T15:37:23;3.33;;;2.03;;
16579;SDS011;8402;51.466;6.806;2023-04-10T15:39:53;3.55;;;2.20;;
16579;SDS011;8402;51.466;6.806;2023-04-10T15:42:23;4.10;;;1.90;;
16579;SDS011;8402;51.466;6.806;2023-04-10T15:44:56;2.70;;;1.98;;
16579;SDS011;8402;51.466;6.806;2023-04-10T15:47:26;4.05;;;2.22;;
16579;SDS011;8402;51.466;6.806;2023-04-10T15:49:56;2.50;;;1.88;;
16579;SDS011;8402;51.466;6.806;2023-04-10T15:52:26;2.50;;;2.08;;